Time;durP1;ratioP1;P1;durP2;ratioP2;P2;SDS_P1;SDS_P2;PMS_P1;PMS_P2;Temp;Humidity;BMP_temperature;BMP_pressure;BME280_temperature;BME280_humidity;BME280_pressure;Samples;Min_cycle;Max_cycle;Signal;HPM_P1;HPM_P2
2024/04/09 00:00:02;;;;;;;;;;;15.70;99.90;;;;;;5400080;26;20360;-73
2024/04/09 00:02:27;;;;;;;;;;;15.70;99.90;;;;;;5406372;26;19939;-73
2024/04/09 00:04:53;;;;;;;;;;;15.70;99.90;;;;;;5381361;26;19930;-72
2024/04/09 00:07:18;;;;;;;;;;;15.80;99.90;;;;;;5381510;26;20315;-73
2024/04/09 00:09:44;;;;;;;;;;;15.80;99.90;;;;;;5381268;26;19936;-73
2024/04/09 00:12:10;;;;;;;;;;;15.80;99.90;;;;;;5382645;26;19930;-73
2024/04/09 00:14:37;;;;;;;;;;;15.80;99.90;;;;;;5379905;26;20008;-74
2024/04/09 00:17:05;;;;;;;;;;;15.70;99.90;;;;;;5381922;26;19937;-72
2024/04/09 00:19:31;;;;;;;;;;;15.70;99.90;;;;;;5381039;26;19929;-73
2024/04/09 00:21:57;;;;;;;;;;;15.80;99.90;;;;;;5381450;26;19930;-74
2024/04/09 00:24:23;;;;;;;;;;;16.00;99.90;;;;;;5381060;26;20450;-75
2024/04/09 00:26:48;;;;;;;;;;;16.10;99.90;;;;;;5381980;26;19933;-74
2024/04/09 00:29:14;;;;;;;;;;;16.30;99.90;;;;;;5380677;26;19933;-74
2024/04/09 00:31:39;;;;;;;;;;;16.40;99.90;;;;;;5380959;26;20039;-74
2024/04/09 00:34:06;;;;;;;;;;;16.10;99.90;;;;;;5373542;26;20312;-74
2024/04/09 00:36:33;;;;;;;;;;;16.00;99.90;;;;;;5380980;26;20391;-74
2024/04/09 00:39:00;;;;;;;;;;;15.80;99.90;;;;;;5405171;26;20264;-74
2024/04/09 00:41:25;;;;;;;;;;;15.70;99.90;;;;;;5381522;26;19941;-74
2024/04/09 00:43:51;;;;;;;;;;;15.60;99.90;;;;;;5402782;26;20322;-74
2024/04/09 00:46:18;;;;;;;;;;;15.60;99.90;;;;;;5391804;26;19929;-74
2024/04/09 00:48:44;;;;;;;;;;;15.60;99.90;;;;;;5370597;26;19937;-74
2024/04/09 00:51:12;;;;;;;;;;;15.60;99.90;;;;;;5416074;26;19944;-74
2024/04/09 00:53:38;;;;;;;;;;;15.60;99.90;;;;;;5415423;26;19957;-75
2024/04/09 00:56:04;;;;;;;;;;;15.50;99.90;;;;;;5415833;26;19945;-75
2024/04/09 00:58:29;;;;;;;;;;;15.40;99.90;;;;;;5414627;26;19929;-75
2024/04/09 01:00:56;;;;;;;;;;;15.40;99.90;;;;;;5416295;26;19929;-75
2024/04/09 01:03:22;;;;;;;;;;;15.30;99.90;;;;;;5414557;26;20370;-75
2024/04/09 01:05:47;;;;;;;;;;;15.40;99.90;;;;;;5391669;26;19929;-74
2024/04/09 01:08:13;;;;;;;;;;;15.50;99.90;;;;;;5415574;26;19940;-75
2024/04/09 01:10:38;;;;;;;;;;;15.40;99.90;;;;;;5415057;26;20392;-75
2024/04/09 01:13:04;;;;;;;;;;;15.30;99.90;;;;;;5415529;26;20376;-75
2024/04/09 01:15:30;;;;;;;;;;;15.30;99.90;;;;;;5381784;26;19930;-75
2024/04/09 01:17:56;;;;;;;;;;;15.40;99.90;;;;;;5380630;26;19934;-74
2024/04/09 01:20:21;;;;;;;;;;;15.40;99.90;;;;;;5371422;26;19930;-75
2024/04/09 01:22:47;;;;;;;;;;;15.40;99.90;;;;;;5367490;26;19933;-76
2024/04/09 01:25:12;;;;;;;;;;;15.30;99.90;;;;;;5380789;26;19980;-75
2024/04/09 01:27:38;;;;;;;;;;;15.20;99.90;;;;;;5402300;26;19944;-75
2024/04/09 01:30:08;;;;;;;;;;;15.20;99.90;;;;;;5376139;26;19929;-75
2024/04/09 01:32:34;;;;;;;;;;;15.30;99.90;;;;;;5381631;26;19941;-75
2024/04/09 01:35:06;;;;;;;;;;;15.20;99.90;;;;;;5381277;26;20372;-75
2024/04/09 01:37:34;;;;;;;;;;;15.30;99.90;;;;;;5367451;26;20432;-75
2024/04/09 01:40:00;;;;;;;;;;;15.20;99.90;;;;;;5384470;26;19939;-75
2024/04/09 01:42:25;;;;;;;;;;;15.00;99.90;;;;;;5385407;26;19948;-75
2024/04/09 01:44:51;;;;;;;;;;;15.00;99.90;;;;;;5383290;26;19937;-75
2024/04/09 01:47:17;;;;;;;;;;;15.10;99.90;;;;;;5386377;26;20276;-75
2024/04/09 01:49:42;;;;;;;;;;;15.30;99.90;;;;;;5382912;26;19980;-75
2024/04/09 01:52:11;;;;;;;;;;;15.30;99.90;;;;;;5385914;26;19930;-75
2024/04/09 01:54:36;;;;;;;;;;;15.40;99.90;;;;;;5377482;26;20369;-75
2024/04/09 01:57:02;;;;;;;;;;;15.40;99.90;;;;;;5376853;26;19930;-75
2024/04/09 01:59:30;;;;;;;;;;;15.30;99.90;;;;;;5382097;26;19995;-75
2024/04/09 02:01:55;;;;;;;;;;;15.20;99.90;;;;;;5409336;26;19929;-75
2024/04/09 02:04:21;;;;;;;;;;;15.10;99.90;;;;;;5416713;26;20375;-75
2024/04/09 02:06:46;;;;;;;;;;;15.00;99.90;;;;;;5416339;26;19935;-75
2024/04/09 02:09:12;;;;;;;;;;;15.10;99.90;;;;;;5417729;26;20376;-75
2024/04/09 02:11:37;;;;;;;;;;;15.20;99.90;;;;;;5398586;26;19937;-75
2024/04/09 02:14:04;;;;;;;;;;;15.10;99.90;;;;;;5415950;26;19937;-75
2024/04/09 02:16:30;;;;;;;;;;;15.20;99.90;;;;;;5414078;26;19939;-75
2024/04/09 02:18:55;;;;;;;;;;;15.40;99.90;;;;;;5414993;26;19929;-75
2024/04/09 02:21:22;;;;;;;;;;;15.20;99.90;;;;;;5412970;26;19936;-75
2024/04/09 02:23:51;;;;;;;;;;;15.10;99.90;;;;;;5416325;26;19964;-75
2024/04/09 02:26:17;;;;;;;;;;;15.00;99.90;;;;;;5405508;26;19929;-75
2024/04/09 02:28:43;;;;;;;;;;;15.10;99.90;;;;;;5402677;26;19930;-75
2024/04/09 02:31:09;;;;;;;;;;;15.00;99.90;;;;;;5382648;26;19995;-75
2024/04/09 02:33:34;;;;;;;;;;;14.90;99.90;;;;;;5414192;26;19937;-76
2024/04/09 02:36:01;;;;;;;;;;;14.80;99.90;;;;;;5412075;26;19929;-75
2024/04/09 02:38:28;;;;;;;;;;;14.70;99.90;;;;;;5414482;26;20267;-75
2024/04/09 02:40:53;;;;;;;;;;;14.80;99.90;;;;;;5412680;26;19929;-75
2024/04/09 02:43:20;;;;;;;;;;;15.10;99.90;;;;;;5405366;26;19957;-75
2024/04/09 02:45:46;;;;;;;;;;;15.20;99.90;;;;;;5397258;26;19933;-76
2024/04/09 02:48:11;;;;;;;;;;;15.10;99.90;;;;;;5414055;26;20376;-75
2024/04/09 02:50:37;;;;;;;;;;;14.80;99.90;;;;;;5412130;26;19968;-76
2024/04/09 02:53:03;;;;;;;;;;;14.70;99.90;;;;;;5413511;26;19929;-75
2024/04/09 02:55:28;;;;;;;;;;;14.60;99.90;;;;;;5411042;26;20010;-75
2024/04/09 02:57:54;;;;;;;;;;;14.80;99.90;;;;;;5414195;26;19929;-75
2024/04/09 03:00:19;;;;;;;;;;;14.70;99.90;;;;;;5410840;26;19929;-78
2024/04/09 03:02:52;;;;;;;;;;;14.60;99.90;;;;;;5389137;26;19929;-75
2024/04/09 03:05:21;;;;;;;;;;;14.70;99.90;;;;;;5407164;26;19961;-75
2024/04/09 03:07:47;;;;;;;;;;;14.70;99.90;;;;;;5401376;26;20373;-75
2024/04/09 03:10:13;;;;;;;;;;;14.70;99.90;;;;;;5406480;26;19936;-75
2024/04/09 03:12:40;;;;;;;;;;;14.70;99.90;;;;;;5416693;26;20261;-75
2024/04/09 03:15:05;;;;;;;;;;;14.80;99.90;;;;;;5415013;26;20264;-75
2024/04/09 03:17:31;;;;;;;;;;;14.90;99.90;;;;;;5402415;26;19936;-74
2024/04/09 03:19:56;;;;;;;;;;;14.90;99.90;;;;;;5397486;26;19961;-74
2024/04/09 03:22:22;;;;;;;;;;;15.10;99.90;;;;;;5416337;26;20513;-74
2024/04/09 03:24:48;;;;;;;;;;;15.10;99.90;;;;;;5411081;26;19940;-74
2024/04/09 03:27:13;;;;;;;;;;;15.10;99.90;;;;;;5397593;26;19929;-74
2024/04/09 03:29:39;;;;;;;;;;;15.10;99.90;;;;;;5413722;26;19941;-74
2024/04/09 03:32:04;;;;;;;;;;;14.90;99.90;;;;;;5400169;26;20280;-73
2024/04/09 03:34:30;;;;;;;;;;;14.90;99.90;;;;;;5382253;26;19936;-75
2024/04/09 03:36:56;;;;;;;;;;;15.00;99.90;;;;;;5380128;26;19933;-74
2024/04/09 03:39:21;;;;;;;;;;;15.20;99.90;;;;;;5379973;26;19944;-76
2024/04/09 03:41:48;;;;;;;;;;;15.20;99.90;;;;;;5382324;26;19930;-76
2024/04/09 03:44:15;;;;;;;;;;;15.30;99.90;;;;;;5381879;26;19980;-75
2024/04/09 03:46:41;;;;;;;;;;;15.10;99.90;;;;;;5381114;26;19937;-76
2024/04/09 03:49:07;;;;;;;;;;;14.90;99.90;;;;;;5383350;26;19935;-76
2024/04/09 03:51:32;;;;;;;;;;;14.90;99.90;;;;;;5380793;26;19930;-76
2024/04/09 03:53:58;;;;;;;;;;;14.80;99.90;;;;;;5381734;26;19937;-74
2024/04/09 03:56:24;;;;;;;;;;;14.60;99.90;;;;;;5383645;26;19936;-75
2024/04/09 03:58:52;;;;;;;;;;;14.50;99.90;;;;;;5384525;26;19936;-75
2024/04/09 04:01:17;;;;;;;;;;;14.50;99.90;;;;;;5398672;26;19940;-74
2024/04/09 04:03:47;;;;;;;;;;;14.60;99.90;;;;;;5391276;26;20404;-75
2024/04/09 04:06:12;;;;;;;;;;;14.60;99.90;;;;;;5398288;26;20258;-76
2024/04/09 04:08:39;;;;;;;;;;;14.50;99.90;;;;;;5408185;26;19935;-76
2024/04/09 04:11:09;;;;;;;;;;;14.50;99.90;;;;;;5416917;26;19936;-76
2024/04/09 04:13:35;;;;;;;;;;;14.60;99.90;;;;;;5416463;26;19944;-76
2024/04/09 04:16:04;;;;;;;;;;;14.40;99.90;;;;;;5416672;26;19928;-75
2024/04/09 04:18:40;;;;;;;;;;;14.20;99.90;;;;;;5414409;26;19945;-75
2024/04/09 04:21:09;;;;;;;;;;;14.10;99.90;;;;;;5413971;26;20285;-74
2024/04/09 04:23:35;;;;;;;;;;;14.00;99.90;;;;;;5376989;26;19945;-75
2024/04/09 04:26:05;;;;;;;;;;;14.00;99.90;;;;;;5402264;26;19933;-75
2024/04/09 04:28:34;;;;;;;;;;;14.00;99.90;;;;;;5414584;26;20002;-74
2024/04/09 04:31:00;;;;;;;;;;;13.90;99.90;;;;;;5414564;26;19929;-75
2024/04/09 04:33:26;;;;;;;;;;;13.80;99.90;;;;;;5416225;26;19935;-75
2024/04/09 04:35:52;;;;;;;;;;;13.60;99.90;;;;;;5414552;26;19940;-75
2024/04/09 04:38:18;;;;;;;;;;;13.50;99.90;;;;;;5403756;26;20268;-75
2024/04/09 04:40:45;;;;;;;;;;;13.40;99.90;;;;;;5397480;26;19936;-75
2024/04/09 04:43:14;;;;;;;;;;;13.60;99.90;;;;;;5416085;26;19937;-75
2024/04/09 04:45:40;;;;;;;;;;;13.60;99.90;;;;;;5419273;26;19929;-74
2024/04/09 04:48:05;;;;;;;;;;;13.60;99.90;;;;;;5402599;26;19979;-74
2024/04/09 04:50:31;;;;;;;;;;;13.50;99.90;;;;;;5379851;26;19929;-74
2024/04/09 04:52:56;;;;;;;;;;;13.40;99.90;;;;;;5415141;26;19995;-75
2024/04/09 04:55:22;;;;;;;;;;;13.20;99.90;;;;;;5389453;26;20353;-74
2024/04/09 04:57:47;;;;;;;;;;;13.10;99.90;;;;;;5389475;26;19937;-74
2024/04/09 05:00:14;;;;;;;;;;;12.90;99.90;;;;;;5401966;26;19932;-74
2024/04/09 05:02:40;;;;;;;;;;;12.90;99.90;;;;;;5409771;26;20316;-74
2024/04/09 05:05:06;;;;;;;;;;;12.90;99.90;;;;;;5392041;26;19930;-74
2024/04/09 05:07:32;;;;;;;;;;;13.10;99.90;;;;;;5370040;26;19998;-74
2024/04/09 05:09:58;;;;;;;;;;;13.10;99.90;;;;;;5411025;26;19940;-74
2024/04/09 05:12:24;;;;;;;;;;;13.10;99.90;;;;;;5413689;26;19941;-74
2024/04/09 05:14:50;;;;;;;;;;;13.10;99.90;;;;;;5394631;26;19929;-74
2024/04/09 05:17:15;;;;;;;;;;;13.10;99.90;;;;;;5414806;26;20379;-74
2024/04/09 05:19:43;;;;;;;;;;;13.10;99.90;;;;;;5411716;26;20218;-75
2024/04/09 05:22:11;;;;;;;;;;;13.00;99.90;;;;;;5413862;26;19994;-74
2024/04/09 05:24:39;;;;;;;;;;;13.10;99.90;;;;;;5409765;26;20272;-74
2024/04/09 05:27:05;;;;;;;;;;;13.00;99.90;;;;;;5371570;26;20388;-74
2024/04/09 05:29:30;;;;;;;;;;;13.10;99.90;;;;;;5408867;26;20259;-75
2024/04/09 05:31:56;;;;;;;;;;;13.10;99.90;;;;;;5412395;26;19945;-75
2024/04/09 05:34:21;;;;;;;;;;;12.90;99.90;;;;;;5412754;26;19998;-73
2024/04/09 05:36:47;;;;;;;;;;;12.80;99.90;;;;;;5413360;26;20002;-76
2024/04/09 05:39:13;;;;;;;;;;;12.70;99.90;;;;;;5409969;26;19938;-76
2024/04/09 05:41:38;;;;;;;;;;;12.80;99.90;;;;;;5413248;26;19929;-73
2024/04/09 05:44:03;;;;;;;;;;;12.80;99.90;;;;;;5411422;26;20338;-74
2024/04/09 05:46:29;;;;;;;;;;;12.80;99.90;;;;;;5411101;26;19936;-75
2024/04/09 05:48:55;;;;;;;;;;;12.70;99.90;;;;;;5368123;26;20358;-75
2024/04/09 05:51:20;;;;;;;;;;;12.80;99.90;;;;;;5396868;26;19929;-74
2024/04/09 05:53:46;;;;;;;;;;;13.00;99.90;;;;;;5411980;26;20232;-75
2024/04/09 05:56:12;;;;;;;;;;;13.20;99.90;;;;;;5389753;26;20396;-74
2024/04/09 05:58:38;;;;;;;;;;;13.10;99.90;;;;;;5356789;26;19938;-74
2024/04/09 06:01:07;;;;;;;;;;;13.00;99.90;;;;;;5393767;26;20295;-74
2024/04/09 06:03:32;;;;;;;;;;;12.90;99.90;;;;;;5377685;26;20277;-74
2024/04/09 06:05:59;;;;;;;;;;;13.00;99.90;;;;;;5379337;26;19944;-73
2024/04/09 06:08:25;;;;;;;;;;;13.00;99.90;;;;;;5384688;26;19930;-73
2024/04/09 06:10:50;;;;;;;;;;;13.00;99.90;;;;;;5372107;26;19938;-73
2024/04/09 06:13:16;;;;;;;;;;;13.10;99.90;;;;;;5364038;26;20766;-74
2024/04/09 06:15:41;;;;;;;;;;;13.10;99.90;;;;;;5381898;26;20077;-74
2024/04/09 06:18:07;;;;;;;;;;;13.20;99.90;;;;;;5394716;26;19937;-73
2024/04/09 06:20:32;;;;;;;;;;;13.50;99.90;;;;;;5403993;26;19961;-74
2024/04/09 06:22:58;;;;;;;;;;;13.40;99.90;;;;;;5383316;26;20262;-73
2024/04/09 06:25:23;;;;;;;;;;;13.50;99.90;;;;;;5396393;26;19929;-74
2024/04/09 06:27:49;;;;;;;;;;;13.50;99.90;;;;;;5402500;26;20231;-74
2024/04/09 06:30:15;;;;;;;;;;;13.60;99.90;;;;;;5391443;26;19929;-73
2024/04/09 06:32:40;;;;;;;;;;;13.80;99.90;;;;;;5387978;26;19929;-74
2024/04/09 06:35:07;;;;;;;;;;;13.80;99.90;;;;;;5386876;26;19934;-74
2024/04/09 06:37:34;;;;;;;;;;;14.00;99.90;;;;;;5389001;26;19930;-71
2024/04/09 06:40:00;;;;;;;;;;;14.10;99.90;;;;;;5375853;26;19942;-74
2024/04/09 06:42:26;;;;;;;;;;;14.50;99.90;;;;;;5363048;26;20375;-74
2024/04/09 06:44:51;;;;;;;;;;;14.60;99.90;;;;;;5387655;26;19936;-74
2024/04/09 06:47:17;;;;;;;;;;;14.60;99.90;;;;;;5379021;26;20335;-74
2024/04/09 06:49:43;;;;;;;;;;;14.60;99.90;;;;;;5387197;26;19933;-74
2024/04/09 06:52:09;;;;;;;;;;;14.60;99.90;;;;;;5382480;26;20075;-74
2024/04/09 06:54:34;;;;;;;;;;;14.50;99.90;;;;;;5388104;26;19984;-74
2024/04/09 06:57:00;;;;;;;;;;;14.30;99.90;;;;;;5381852;26;20288;-74
2024/04/09 06:59:25;;;;;;;;;;;14.10;99.90;;;;;;5388409;26;19938;-74
2024/04/09 07:01:51;;;;;;;;;;;14.10;99.90;;;;;;5383048;26;19941;-74
2024/04/09 07:04:17;;;;;;;;;;;14.10;99.90;;;;;;5395367;26;19930;-74
2024/04/09 07:06:43;;;;;;;;;;;14.30;99.90;;;;;;5374573;26;19930;-74
2024/04/09 07:09:09;;;;;;;;;;;14.40;99.90;;;;;;5377363;26;20692;-74
2024/04/09 07:11:34;;;;;;;;;;;14.50;99.90;;;;;;5379987;26;19936;-74
2024/04/09 07:14:00;;;;;;;;;;;14.60;99.90;;;;;;5378447;26;19962;-74
2024/04/09 07:16:25;;;;;;;;;;;14.80;99.90;;;;;;5380643;26;19936;-74
2024/04/09 07:18:51;;;;;;;;;;;15.10;99.90;;;;;;5382922;26;19937;-75
2024/04/09 07:21:17;;;;;;;;;;;15.10;99.90;;;;;;5380761;26;19930;-74
2024/04/09 07:23:43;;;;;;;;;;;15.20;99.90;;;;;;5384305;26;19929;-74
2024/04/09 07:26:08;;;;;;;;;;;15.10;99.90;;;;;;5381348;26;20024;-73
2024/04/09 07:28:34;;;;;;;;;;;15.00;99.90;;;;;;5374065;26;19933;-74
2024/04/09 07:31:05;;;;;;;;;;;14.90;99.90;;;;;;5377867;26;19934;-74
2024/04/09 07:33:31;;;;;;;;;;;15.00;99.90;;;;;;5385703;26;19937;-74
2024/04/09 07:35:57;;;;;;;;;;;15.20;99.90;;;;;;5380052;26;19930;-74
2024/04/09 07:38:22;;;;;;;;;;;15.40;99.90;;;;;;5387401;26;19929;-75
2024/04/09 07:40:48;;;;;;;;;;;15.60;99.90;;;;;;5380616;26;19940;-74
2024/04/09 07:43:13;;;;;;;;;;;15.40;99.90;;;;;;5389268;26;19929;-74
2024/04/09 07:45:39;;;;;;;;;;;15.30;99.90;;;;;;5374702;26;19938;-75
2024/04/09 07:48:05;;;;;;;;;;;15.10;99.90;;;;;;5381404;26;19940;-74
2024/04/09 07:50:31;;;;;;;;;;;15.00;99.90;;;;;;5376809;26;19961;-75
2024/04/09 07:52:57;;;;;;;;;;;14.90;99.90;;;;;;5377276;26;19969;-74
2024/04/09 07:55:22;;;;;;;;;;;14.90;99.90;;;;;;5380461;26;20063;-74
2024/04/09 07:57:48;;;;;;;;;;;14.80;99.90;;;;;;5366950;26;20012;-74
2024/04/09 08:00:14;;;;;;;;;;;14.60;99.90;;;;;;5379774;26;20012;-75
2024/04/09 08:02:48;;;;;;;;;;;14.50;99.90;;;;;;5383559;26;19930;-74
2024/04/09 08:05:16;;;;;;;;;;;14.50;99.90;;;;;;5382127;26;19929;-74
2024/04/09 08:07:42;;;;;;;;;;;14.60;99.90;;;;;;5377538;26;19934;-73
2024/04/09 08:10:16;;;;;;;;;;;14.80;99.90;;;;;;5394098;26;19930;-74
2024/04/09 08:12:49;;;;;;;;;;;14.70;99.90;;;;;;5385575;26;20600;-75
2024/04/09 08:15:18;;;;;;;;;;;14.70;99.90;;;;;;5388984;26;19998;-73
2024/04/09 08:17:44;;;;;;;;;;;14.70;99.90;;;;;;5389142;26;19936;-75
2024/04/09 08:20:10;;;;;;;;;;;14.60;99.90;;;;;;5386456;26;19935;-75
2024/04/09 08:22:36;;;;;;;;;;;14.60;99.90;;;;;;5378198;26;19938;-75
2024/04/09 08:25:02;;;;;;;;;;;14.60;99.90;;;;;;5378902;26;19968;-75
2024/04/09 08:27:27;;;;;;;;;;;14.70;99.90;;;;;;5362163;26;19938;-75
2024/04/09 08:29:53;;;;;;;;;;;14.70;99.90;;;;;;5369884;26;19930;-75
2024/04/09 08:32:18;;;;;;;;;;;14.60;99.90;;;;;;5369847;26;19930;-74
2024/04/09 08:34:44;;;;;;;;;;;14.80;99.90;;;;;;5376044;26;19941;-74
2024/04/09 08:37:10;;;;;;;;;;;15.00;99.90;;;;;;5379130;26;19930;-75
2024/04/09 08:39:36;;;;;;;;;;;15.40;99.90;;;;;;5371928;26;19936;-75
2024/04/09 08:42:02;;;;;;;;;;;16.00;99.90;;;;;;5384522;26;19940;-75
2024/04/09 08:44:28;;;;;;;;;;;16.50;99.90;;;;;;5384508;26;19936;-74
2024/04/09 08:46:54;;;;;;;;;;;17.30;99.90;;;;;;5387028;26;19930;-75
2024/04/09 08:49:19;;;;;;;;;;;17.40;99.90;;;;;;5380813;26;20339;-74
2024/04/09 08:51:46;;;;;;;;;;;17.20;99.90;;;;;;5368439;26;19930;-74
2024/04/09 08:54:12;;;;;;;;;;;17.40;99.90;;;;;;5376943;26;19941;-73
2024/04/09 08:56:37;;;;;;;;;;;17.50;99.90;;;;;;5371239;26;20364;-73
2024/04/09 08:59:04;;;;;;;;;;;18.10;99.90;;;;;;5376912;26;19973;-74
2024/04/09 09:01:30;;;;;;;;;;;17.90;99.90;;;;;;5375694;26;19930;-74
2024/04/09 09:03:55;;;;;;;;;;;18.30;99.90;;;;;;5370424;26;19929;-73
2024/04/09 09:06:21;;;;;;;;;;;18.30;99.90;;;;;;5379157;26;20269;-74
2024/04/09 09:08:46;;;;;;;;;;;17.90;99.90;;;;;;5375266;26;20531;-73
2024/04/09 09:11:21;;;;;;;;;;;17.60;99.90;;;;;;5387242;26;19938;-73
2024/04/09 09:13:47;;;;;;;;;;;17.50;99.90;;;;;;5379464;26;19974;-73
2024/04/09 09:16:12;;;;;;;;;;;17.10;99.90;;;;;;5378139;26;19931;-74
2024/04/09 09:18:38;;;;;;;;;;;16.70;99.90;;;;;;5379169;26;19929;-73
2024/04/09 09:21:04;;;;;;;;;;;16.10;99.90;;;;;;5368260;26;19929;-73
2024/04/09 09:23:30;;;;;;;;;;;15.90;99.90;;;;;;5382488;26;19936;-73
2024/04/09 09:25:56;;;;;;;;;;;15.70;99.90;;;;;;5372563;26;20387;-73
2024/04/09 09:28:22;;;;;;;;;;;15.60;99.90;;;;;;5384303;26;19935;-72
2024/04/09 09:30:48;;;;;;;;;;;15.70;99.90;;;;;;5379201;26;19934;-72
2024/04/09 09:33:22;;;;;;;;;;;15.80;99.90;;;;;;5379876;26;19935;-72
2024/04/09 09:35:48;;;;;;;;;;;16.10;99.90;;;;;;5378664;26;19930;-75
2024/04/09 09:38:15;;;;;;;;;;;16.20;99.90;;;;;;5382459;26;19929;-74
2024/04/09 09:40:42;;;;;;;;;;;16.40;99.90;;;;;;5379244;26;19930;-74
2024/04/09 09:43:08;;;;;;;;;;;16.50;99.90;;;;;;5403449;26;19929;-74
2024/04/09 09:45:34;;;;;;;;;;;16.60;99.90;;;;;;5362130;26;19930;-75
2024/04/09 09:47:59;;;;;;;;;;;16.60;99.90;;;;;;5389666;26;19937;-74
2024/04/09 09:50:25;;;;;;;;;;;16.30;99.90;;;;;;5376919;26;19930;-75
2024/04/09 09:52:52;;;;;;;;;;;16.30;99.90;;;;;;5381532;26;20468;-75
2024/04/09 09:55:18;;;;;;;;;;;16.30;99.90;;;;;;5385265;26;20084;-74
2024/04/09 09:57:45;;;;;;;;;;;16.20;99.90;;;;;;5381997;26;19976;-73
2024/04/09 10:00:12;;;;;;;;;;;16.40;99.90;;;;;;5376313;26;19937;-74
2024/04/09 10:02:41;;;;;;;;;;;16.60;99.90;;;;;;5383845;26;19942;-73
2024/04/09 10:05:07;;;;;;;;;;;16.70;99.90;;;;;;5377368;26;20256;-74
2024/04/09 10:07:33;;;;;;;;;;;16.80;99.90;;;;;;5377040;26;20636;-74
2024/04/09 10:09:58;;;;;;;;;;;16.70;99.90;;;;;;5378609;26;20076;-74
2024/04/09 10:12:27;;;;;;;;;;;16.60;99.90;;;;;;5383804;26;19930;-76
2024/04/09 10:15:07;;;;;;;;;;;16.30;99.90;;;;;;5390311;26;19936;-73
2024/04/09 10:17:54;;;;;;;;;;;16.20;99.90;;;;;;5381732;26;19936;-73
2024/04/09 10:20:20;;;;;;;;;;;16.20;99.90;;;;;;5377230;26;19930;-74
2024/04/09 10:22:49;;;;;;;;;;;16.30;99.90;;;;;;5375944;26;19965;-74
2024/04/09 10:25:15;;;;;;;;;;;16.50;99.90;;;;;;5394920;26;19976;-74
2024/04/09 10:27:41;;;;;;;;;;;16.60;99.90;;;;;;5373307;26;20438;-74
2024/04/09 10:30:16;;;;;;;;;;;16.80;99.90;;;;;;5368390;26;19933;-74
2024/04/09 10:33:02;;;;;;;;;;;16.80;99.90;;;;;;5369672;26;20006;-75
2024/04/09 10:35:28;;;;;;;;;;;16.60;99.90;;;;;;5372252;26;19936;-75
2024/04/09 10:37:55;;;;;;;;;;;16.50;99.90;;;;;;5379229;26;20080;-74
2024/04/09 10:40:21;;;;;;;;;;;16.50;99.90;;;;;;5386004;26;19930;-74
2024/04/09 10:42:47;;;;;;;;;;;16.60;99.90;;;;;;5385109;26;19929;-74
2024/04/09 10:45:12;;;;;;;;;;;16.60;99.90;;;;;;5386312;26;20002;-74
2024/04/09 10:47:38;;;;;;;;;;;16.70;99.90;;;;;;5386322;26;19957;-74
2024/04/09 10:50:04;;;;;;;;;;;16.90;99.90;;;;;;5386394;26;19949;-74
2024/04/09 10:52:29;;;;;;;;;;;17.00;99.90;;;;;;5385458;26;19929;-74
2024/04/09 10:54:55;;;;;;;;;;;17.00;99.90;;;;;;5382931;26;19930;-75
2024/04/09 10:57:20;;;;;;;;;;;16.90;99.90;;;;;;5380428;26;20079;-76
2024/04/09 10:59:46;;;;;;;;;;;16.80;99.90;;;;;;5383133;26;19999;-73
2024/04/09 11:02:13;;;;;;;;;;;16.80;99.90;;;;;;5369533;26;19941;-74
2024/04/09 11:04:39;;;;;;;;;;;17.00;99.90;;;;;;5372863;26;19976;-73
2024/04/09 11:07:05;;;;;;;;;;;17.20;99.90;;;;;;5367646;26;19938;-73
2024/04/09 11:09:33;;;;;;;;;;;17.30;99.90;;;;;;5369965;26;19929;-73
2024/04/09 11:11:59;;;;;;;;;;;17.50;99.90;;;;;;5369649;26;19953;-73
2024/04/09 11:14:25;;;;;;;;;;;17.50;99.40;;;;;;5374318;26;19936;-74
2024/04/09 11:16:51;;;;;;;;;;;17.20;99.90;;;;;;5378197;26;20288;-73
2024/04/09 11:19:18;;;;;;;;;;;17.00;99.90;;;;;;5363778;26;19930;-73
2024/04/09 11:21:44;;;;;;;;;;;16.80;99.90;;;;;;5373040;26;20429;-74
2024/04/09 11:24:09;;;;;;;;;;;16.70;99.90;;;;;;5373974;26;20099;-73
2024/04/09 11:26:35;;;;;;;;;;;16.90;99.90;;;;;;5373794;26;19953;-73
2024/04/09 11:29:00;;;;;;;;;;;17.00;99.90;;;;;;5372922;26;19947;-73
2024/04/09 11:31:26;;;;;;;;;;;16.80;99.90;;;;;;5371174;26;19942;-73
2024/04/09 11:33:52;;;;;;;;;;;16.50;99.90;;;;;;5371016;26;19938;-73
2024/04/09 11:36:17;;;;;;;;;;;16.40;99.90;;;;;;5371550;26;19937;-72
2024/04/09 11:38:42;;;;;;;;;;;16.40;99.90;;;;;;5370715;26;19945;-73
2024/04/09 11:41:08;;;;;;;;;;;16.90;99.90;;;;;;5372804;26;19930;-73
2024/04/09 11:43:34;;;;;;;;;;;17.10;99.90;;;;;;5371110;26;19945;-73
2024/04/09 11:46:00;;;;;;;;;;;17.30;99.90;;;;;;5370902;26;20583;-72
2024/04/09 11:48:26;;;;;;;;;;;17.10;99.90;;;;;;5374810;26;19957;-73
2024/04/09 11:50:52;;;;;;;;;;;17.10;99.90;;;;;;5385697;26;19929;-74
2024/04/09 11:53:17;;;;;;;;;;;17.10;99.90;;;;;;5392114;26;19930;-75
2024/04/09 11:55:43;;;;;;;;;;;17.00;99.70;;;;;;5373607;26;19968;-73
2024/04/09 11:58:09;;;;;;;;;;;16.80;99.60;;;;;;5371837;26;20577;-73
2024/04/09 12:00:34;;;;;;;;;;;16.70;99.90;;;;;;5369274;26;19938;-73
2024/04/09 12:03:00;;;;;;;;;;;16.60;99.90;;;;;;5374095;26;19930;-73
2024/04/09 12:05:26;;;;;;;;;;;16.40;99.90;;;;;;5370046;26;19937;-73
2024/04/09 12:07:52;;;;;;;;;;;16.50;99.40;;;;;;5372576;26;19937;-73
2024/04/09 12:10:18;;;;;;;;;;;16.50;99.90;;;;;;5369326;26;19930;-73
2024/04/09 12:12:43;;;;;;;;;;;16.40;99.90;;;;;;5373219;26;19949;-73
2024/04/09 12:15:09;;;;;;;;;;;16.40;99.90;;;;;;5369721;26;19973;-73
2024/04/09 12:17:34;;;;;;;;;;;16.50;99.90;;;;;;5370296;26;19948;-73
2024/04/09 12:20:00;;;;;;;;;;;16.60;99.90;;;;;;5371549;26;20346;-73
2024/04/09 12:22:26;;;;;;;;;;;16.40;99.90;;;;;;5367248;26;19929;-74
2024/04/09 12:24:51;;;;;;;;;;;16.40;99.90;;;;;;5370230;26;19942;-74
2024/04/09 12:27:17;;;;;;;;;;;16.30;99.90;;;;;;5370551;26;19945;-73
2024/04/09 12:29:43;;;;;;;;;;;16.30;99.90;;;;;;5364485;26;19977;-74
2024/04/09 12:32:10;;;;;;;;;;;16.40;99.90;;;;;;5366947;26;19937;-74
2024/04/09 12:34:36;;;;;;;;;;;16.70;99.90;;;;;;5369790;26;19937;-74
2024/04/09 12:37:02;;;;;;;;;;;16.80;99.90;;;;;;5371811;26;19929;-73
2024/04/09 12:39:30;;;;;;;;;;;16.70;99.90;;;;;;5369380;26;19944;-73
2024/04/09 12:41:56;;;;;;;;;;;16.90;99.90;;;;;;5370566;26;20003;-74
2024/04/09 12:44:21;;;;;;;;;;;17.00;99.90;;;;;;5364078;26;19941;-75
2024/04/09 12:46:47;;;;;;;;;;;16.90;99.70;;;;;;5367364;26;19945;-75
2024/04/09 12:49:14;;;;;;;;;;;16.80;99.90;;;;;;5370896;26;19941;-75
2024/04/09 12:51:40;;;;;;;;;;;16.90;99.90;;;;;;5370065;26;19937;-73
2024/04/09 12:54:05;;;;;;;;;;;16.90;99.90;;;;;;5369755;26;19945;-74
2024/04/09 12:56:32;;;;;;;;;;;16.90;99.90;;;;;;5371406;26;20396;-74
2024/04/09 12:58:57;;;;;;;;;;;16.70;99.90;;;;;;5370669;26;19937;-74
2024/04/09 13:01:23;;;;;;;;;;;16.60;99.60;;;;;;5365116;26;19933;-73
2024/04/09 13:03:48;;;;;;;;;;;16.60;99.90;;;;;;5367478;26;20365;-74
2024/04/09 13:06:14;;;;;;;;;;;16.60;99.90;;;;;;5371171;26;20287;-74
2024/04/09 13:08:39;;;;;;;;;;;16.70;99.90;;;;;;5367624;26;19999;-73
2024/04/09 13:11:05;;;;;;;;;;;16.80;99.90;;;;;;5370018;26;19945;-74
2024/04/09 13:13:30;;;;;;;;;;;16.70;99.90;;;;;;5372823;26;19938;-73
2024/04/09 13:15:56;;;;;;;;;;;16.50;99.90;;;;;;5368618;26;19936;-73
2024/04/09 13:18:21;;;;;;;;;;;16.60;99.90;;;;;;5367033;26;19930;-75
2024/04/09 13:20:47;;;;;;;;;;;16.50;99.90;;;;;;5371192;26;19933;-75
2024/04/09 13:23:14;;;;;;;;;;;16.60;99.90;;;;;;5367607;26;19937;-72
2024/04/09 13:25:39;;;;;;;;;;;16.80;99.90;;;;;;5368628;26;19970;-75
2024/04/09 13:28:05;;;;;;;;;;;16.90;99.80;;;;;;5368317;26;19937;-73
2024/04/09 13:30:30;;;;;;;;;;;16.80;99.70;;;;;;5366098;26;19930;-76
2024/04/09 13:32:56;;;;;;;;;;;16.70;99.80;;;;;;5384332;26;19936;-75
2024/04/09 13:35:21;;;;;;;;;;;16.50;99.90;;;;;;5372784;26;19934;-74
2024/04/09 13:37:47;;;;;;;;;;;16.50;99.90;;;;;;5378373;26;19988;-75
2024/04/09 13:40:12;;;;;;;;;;;16.50;99.90;;;;;;5371949;26;19941;-74
2024/04/09 13:42:41;;;;;;;;;;;16.60;99.90;;;;;;5367860;26;20281;-73
2024/04/09 13:45:07;;;;;;;;;;;16.50;99.90;;;;;;5369795;26;19944;-74
2024/04/09 13:47:33;;;;;;;;;;;16.30;99.90;;;;;;5385775;26;19973;-73
2024/04/09 13:49:58;;;;;;;;;;;16.20;99.90;;;;;;5373576;26;19937;-74
2024/04/09 13:52:24;;;;;;;;;;;16.10;99.90;;;;;;5387043;26;20365;-73
2024/04/09 13:54:49;;;;;;;;;;;16.20;99.90;;;;;;5366888;26;20011;-73
2024/04/09 13:57:15;;;;;;;;;;;16.10;99.90;;;;;;5377168;26;20028;-73
2024/04/09 13:59:41;;;;;;;;;;;16.20;99.90;;;;;;5376550;26;19929;-74
2024/04/09 14:02:12;;;;;;;;;;;16.10;99.90;;;;;;5380233;26;19929;-73
2024/04/09 14:04:37;;;;;;;;;;;16.00;99.90;;;;;;5374705;26;19933;-74
2024/04/09 14:07:03;;;;;;;;;;;15.80;99.90;;;;;;5376854;26;19962;-73
2024/04/09 14:09:28;;;;;;;;;;;15.80;99.90;;;;;;5371957;26;19961;-73